My webcam Meer informatie My webcam


Onweer radar Meer informatie blitzortung!


Regen radar Meer informatie rain snow radar


Bezoek ook deze websites:

Template documentation
and downloads

And another site

Leuven-Template Forum

support.leuven-template



Het weer levert geen direct gevaar op.    Er zijn geen waarschuwingen afgegeven.

METAR rapporten vliegvelden

   
EHVK - Volkel Rnlafb, Netherlands
Afstand tot: ZW 18 km
Gewijzigd: 22-09-2019 18:25
Bewolking  
Bewolking  
   Wind: Zuiden 9.3 km/h
Wind: Zuiden 9.3 km/h
Temperatuur: 26°C
Dauwpunt: 13°C
Vochtigheid: 45%
Barometer: 1006 hPa
Bewolking: Bewolking
Zicht: meer dan 10 km
Bewolking: Gedeeltelijk bewolkt 7700 ft,
Gedeeltelijk bewolkt 12000 ft,
Bewolking 30000 ft
EHVK 221625Z AUTO 18005KT 120V180 9999 SCT077 SCT120 OVC300 26/13 Q1006 BLU
EDLV - Niederrhein, Germany
Afstand tot: ZO 25 km
Gewijzigd: 22-09-2019 18:20
Helder  
Helder  
   Wind: varieert 3.7 km/h
Wind: varieert 3.7 km/h
Temperatuur: 26°C
Dauwpunt: 14°C
Vochtigheid: 48%
Barometer: 1006 hPa
Zicht: meer dan 10 km
Bewolking: Helder
EDLV 221620Z VRB02KT CAVOK 26/14 Q1006
EHDL - Deelen Rnlafb, Netherlands
Afstand tot: N 35 km
Gewijzigd: 22-09-2019 18:25
Bewolking  
Bewolking  
   Wind: ZZO 9.3 km/h
Wind: ZZO 9.3 km/h
Temperatuur: 24°C
Dauwpunt: 14°C
Vochtigheid: 54%
Barometer: 1006 hPa
Bewolking: Bewolking
Zicht: meer dan 10 km
Bewolking: Licht bewolkt 7300 ft,
Bewolking 11000 ft
EHDL 221625Z AUTO 16005KT 110V210 9999 FEW073 OVC110 24/14 Q1006 BLU
EHEH - Eindhoven Rnlafb, Netherlands
Afstand tot: ZW 48 km
Gewijzigd: 22-09-2019 18:25
Grotendeels bewolkt  
Grotendeels bewolkt  
   Wind: Zuiden 9.3 km/h
Wind: Zuiden 9.3 km/h
Temperatuur: 25°C
Dauwpunt: 14°C
Vochtigheid: 51%
Barometer: 1006 hPa
Bewolking: Grotendeels bewolkt
Zicht: meer dan 10 km
Bewolking: Gedeeltelijk bewolkt 6600 ft,
Gedeeltelijk bewolkt 7800 ft,
Grotendeels bewolkt 9600 ft
EHEH 221625Z AUTO 17005KT 140V200 9999 SCT066 SCT078 BKN096 25/14 Q1006 BLU 17007KT CAVOK TEMPO FEW060CB SCT070 BKN100
EHGR - Gilze-Rijen Rnla, Netherlands
Afstand tot: WZW 70 km
Gewijzigd: 22-09-2019 18:25
Gedeeltelijk bewolkt  
Gedeeltelijk bewolkt  
   Wind: Zuiden 11.1 km/h
Wind: Zuiden 11.1 km/h
Temperatuur: 25°C
Dauwpunt: 14°C
Vochtigheid: 51%
Barometer: 1005 hPa
Bewolking: Gedeeltelijk bewolkt
Zicht: meer dan 10 km
Bewolking: Gedeeltelijk bewolkt 28000 ft
EHGR 221625Z AUTO 17006KT 130V200 9999 SCT280 25/14 Q1005 BLU
EBBL - Kleine-Brogel(Ba, Belgium
Afstand tot: ZZW 71 km
Gewijzigd: 22-09-2019 18:25
Grotendeels bewolkt  
Grotendeels bewolkt  
   Wind: Zuiden 7.4 km/h
Wind: Zuiden 7.4 km/h
Temperatuur: 25°C
Dauwpunt: 14°C
Vochtigheid: 51%
Barometer: 1006 hPa
Bewolking: Grotendeels bewolkt
Zicht: meer dan 10 km
Bewolking: Gedeeltelijk bewolkt 6800 ft,
Grotendeels bewolkt 9300 ft
EBBL 221625Z AUTO 19004KT 9999 SCT068/// BKN093/// 25/14 Q1006 BLU

Script ontwikkeld door  Saratoga-weather.org Aangepast voor de template door  Weerstation Leuven

U vindt ons ook hier:

Het Weer Aktueel

European Weather Network

WeatherCloud

Weather Underground

Benelux Weer Netwerk

AWEKAS

Apparatuur in gebruik:

Weerstation
Davis VP2

Weerprogramma
Meteobridge

Weercomputer
My Computer

Webleverancier
My provider

Davis VP2

Meteobridge

My Computer

My provider